Time;durP1;ratioP1;P1;durP2;ratioP2;P2;SDS_P1;SDS_P2;PMS_P1;PMS_P2;Temp;Humidity;BMP_temperature;BMP_pressure;BME280_temperature;BME280_humidity;BME280_pressure;Samples;Min_cycle;Max_cycle;Signal;HPM_P1;HPM_P2
2023/01/08 00:00:26;;;;;;;2.50;2.28;;;15.50;84.80;;;;;;4192666;28;20055;-64
2023/01/08 00:03:07;;;;;;;2.38;2.17;;;15.50;85.40;;;;;;4191084;28;20060;-64
2023/01/08 00:05:48;;;;;;;3.08;2.30;;;15.50;84.60;;;;;;4190938;28;20118;-63
2023/01/08 00:08:29;;;;;;;2.25;2.08;;;15.50;84.70;;;;;;4184835;28;20233;-64
2023/01/08 00:11:11;;;;;;;2.05;1.95;;;15.50;84.60;;;;;;4192176;28;20051;-64
2023/01/08 00:13:53;;;;;;;2.53;1.80;;;15.40;84.70;;;;;;4192025;28;20055;-63
2023/01/08 00:16:34;;;;;;;2.35;2.13;;;15.40;84.80;;;;;;4192260;28;20051;-63
2023/01/08 00:19:15;;;;;;;1.92;1.58;;;15.40;84.80;;;;;;4192222;28;20058;-64
2023/01/08 00:21:55;;;;;;;1.90;1.80;;;15.30;84.70;;;;;;4191233;28;20046;-64
2023/01/08 00:24:36;;;;;;;1.95;1.85;;;15.30;85.00;;;;;;4192014;28;20785;-63
2023/01/08 00:27:17;;;;;;;1.83;1.73;;;15.30;85.30;;;;;;4192123;28;20046;-63
2023/01/08 00:29:59;;;;;;;3.42;2.05;;;15.30;85.30;;;;;;4192071;28;20125;-64
2023/01/08 00:32:40;;;;;;;2.08;1.98;;;15.20;85.50;;;;;;4192374;28;20181;-64
2023/01/08 00:35:21;;;;;;;2.20;2.10;;;15.20;85.50;;;;;;4175355;28;20060;-64
2023/01/08 00:38:03;;;;;;;2.22;1.92;;;15.20;85.60;;;;;;4175917;28;20060;-64
2023/01/08 00:40:44;;;;;;;2.15;2.00;;;15.20;85.80;;;;;;4175667;28;20408;-64
2023/01/08 00:43:25;;;;;;;3.20;2.10;;;15.20;85.80;;;;;;4186590;28;20055;-64
2023/01/08 00:46:08;;;;;;;1.90;1.80;;;15.20;85.90;;;;;;4191647;28;20071;-65
2023/01/08 00:48:49;;;;;;;2.05;1.88;;;15.20;85.90;;;;;;4191998;28;20372;-63
2023/01/08 00:51:30;;;;;;;2.40;2.20;;;15.20;85.90;;;;;;4191665;28;20059;-64
2023/01/08 00:54:11;;;;;;;2.00;1.90;;;15.20;85.90;;;;;;4190455;28;20059;-64
2023/01/08 00:56:54;;;;;;;;;;;15.10;86.00;;;;;;4192125;28;20093;-64
2023/01/08 00:59:35;;;;;;;2.95;1.95;;;15.10;86.10;;;;;;4174492;28;20291;-63
2023/01/08 01:02:17;;;;;;;2.38;2.13;;;15.10;86.50;;;;;;4179796;28;20060;-64
2023/01/08 01:04:58;;;;;;;2.03;1.90;;;15.20;86.70;;;;;;4191586;28;20048;-63
2023/01/08 01:07:39;;;;;;;2.00;1.90;;;15.30;86.30;;;;;;4192159;28;20450;-63
2023/01/08 01:10:20;;;;;;;2.00;1.90;;;15.40;86.10;;;;;;4190890;28;20129;-64
2023/01/08 01:13:01;;;;;;;2.13;2.03;;;15.50;85.70;;;;;;4178698;28;20047;-63
2023/01/08 01:15:42;;;;;;;2.10;2.00;;;15.50;85.50;;;;;;4192031;28;20404;-64
2023/01/08 01:18:24;;;;;;;2.00;1.88;;;15.50;85.30;;;;;;4190947;28;20519;-64
2023/01/08 01:21:10;;;;;;;1.98;1.83;;;15.60;85.10;;;;;;4191809;28;20257;-64
2023/01/08 01:23:55;;;;;;;2.50;1.55;;;15.60;85.00;;;;;;4184192;28;20166;-63
2023/01/08 01:26:36;;;;;;;1.80;1.60;;;15.60;84.80;;;;;;4191920;28;20055;-63
2023/01/08 01:29:17;;;;;;;2.63;1.30;;;15.70;84.70;;;;;;4191304;28;20056;-64
2023/01/08 01:31:58;;;;;;;2.22;1.52;;;15.70;84.60;;;;;;4191573;28;20700;-65
2023/01/08 01:34:41;;;;;;;1.50;1.42;;;15.70;84.40;;;;;;4174898;28;20526;-64
2023/01/08 01:37:22;;;;;;;1.85;1.70;;;15.70;84.40;;;;;;4176055;28;20076;-63
2023/01/08 01:40:03;;;;;;;1.80;1.70;;;15.80;84.50;;;;;;4182119;28;20557;-63
2023/01/08 01:42:44;;;;;;;1.60;1.48;;;15.90;84.10;;;;;;4209735;27;20043;-63
2023/01/08 01:45:27;;;;;;;2.13;1.70;;;15.90;83.60;;;;;;4194750;28;20179;-64
2023/01/08 01:48:11;;;;;;;3.00;1.90;;;16.00;83.30;;;;;;4194884;28;20202;-63
2023/01/08 01:50:54;;;;;;;2.03;1.92;;;16.10;83.10;;;;;;4194523;28;20122;-64
2023/01/08 01:53:37;;;;;;;2.30;1.70;;;16.10;82.90;;;;;;4186739;28;20055;-64
2023/01/08 01:56:18;;;;;;;2.10;2.00;;;16.10;82.80;;;;;;4194279;28;20094;-65
2023/01/08 01:58:59;;;;;;;1.95;1.85;;;16.10;82.80;;;;;;4193944;28;20055;-64
2023/01/08 02:01:42;;;;;;;2.25;2.05;;;16.00;82.80;;;;;;4177611;28;20178;-64
2023/01/08 02:04:23;;;;;;;2.45;2.08;;;16.00;82.90;;;;;;4177344;28;20203;-65
2023/01/08 02:07:13;;;;;;;2.90;1.98;;;16.00;82.90;;;;;;4190981;28;20411;-63
2023/01/08 02:10:03;;;;;;;1.45;1.30;;;16.10;82.80;;;;;;4177730;28;20535;-64
2023/01/08 02:12:51;;;;;;;1.88;1.63;;;16.10;82.80;;;;;;4181031;28;20059;-63
2023/01/08 02:15:38;;;;;;;2.50;1.48;;;16.10;82.70;;;;;;4194523;28;20407;-64
2023/01/08 02:18:23;;;;;;;4.70;1.58;;;16.10;82.60;;;;;;4194077;28;20056;-64
2023/01/08 02:21:09;;;;;;;1.45;1.35;;;16.10;82.70;;;;;;4194184;28;20510;-64
2023/01/08 02:23:59;;;;;;;1.50;1.40;;;16.10;82.60;;;;;;4192484;28;20187;-64
2023/01/08 02:26:44;;;;;;;3.03;1.90;;;16.20;82.50;;;;;;4210662;27;20105;-64
2023/01/08 02:29:28;;;;;;;2.80;1.20;;;16.20;82.50;;;;;;4210813;27;20664;-64
2023/01/08 02:32:08;;;;;;;3.20;1.20;;;16.20;82.20;;;;;;4202696;27;20055;-64
2023/01/08 02:34:49;;;;;;;3.28;1.27;;;16.20;82.30;;;;;;4197251;27;20101;-65
2023/01/08 02:37:30;;;;;;;3.83;1.30;;;16.20;82.30;;;;;;4207787;27;20055;-65
2023/01/08 02:40:18;;;;;;;5.53;1.50;;;16.20;82.30;;;;;;4210566;27;20145;-64
2023/01/08 02:43:08;;;;;;;5.30;1.73;;;16.20;82.10;;;;;;4210061;27;20059;-64
2023/01/08 02:45:52;;;;;;;9.00;1.63;;;16.30;81.90;;;;;;4176197;28;20051;-64
2023/01/08 02:48:38;;;;;;;4.20;1.40;;;16.30;81.70;;;;;;4176848;28;20430;-64
2023/01/08 02:51:25;;;;;;;3.10;1.38;;;16.30;81.70;;;;;;4176915;28;20098;-65
2023/01/08 02:54:11;;;;;;;5.22;1.42;;;16.30;81.60;;;;;;4198134;27;20060;-64
2023/01/08 02:56:59;;;;;;;6.07;1.98;;;16.30;81.60;;;;;;4193659;28;20093;-64
2023/01/08 02:59:44;;;;;;;3.83;1.58;;;16.20;81.50;;;;;;4193405;28;20055;-64
2023/01/08 03:02:25;;;;;;;2.55;1.15;;;16.20;81.40;;;;;;4193325;28;20055;-64
2023/01/08 03:05:14;;;;;;;6.95;1.92;;;16.20;81.70;;;;;;4193089;28;20092;-63
2023/01/08 03:07:55;;;;;;;4.47;1.50;;;16.10;81.90;;;;;;4193085;28;20050;-63
2023/01/08 03:10:38;;;;;;;8.18;1.98;;;16.10;82.00;;;;;;4193021;28;20404;-63
2023/01/08 03:13:24;;;;;;;6.80;2.03;;;16.00;82.10;;;;;;4192747;28;20105;-63
2023/01/08 03:16:10;;;;;;;10.60;2.00;;;16.00;82.30;;;;;;4193595;28;20068;-63
2023/01/08 03:18:58;;;;;;;6.05;1.48;;;16.00;82.50;;;;;;4193246;28;20059;-64
2023/01/08 03:21:41;;;;;;;7.18;1.40;;;16.10;82.40;;;;;;4193121;28;20058;-64
2023/01/08 03:24:24;;;;;;;9.02;1.92;;;16.10;82.20;;;;;;4192817;28;20202;-64
2023/01/08 03:27:06;;;;;;;6.95;1.38;;;16.10;82.00;;;;;;4193217;28;20414;-64
2023/01/08 03:29:50;;;;;;;3.88;1.42;;;16.20;82.00;;;;;;4193063;28;20043;-64
2023/01/08 03:32:33;;;;;;;4.65;1.23;;;16.20;81.90;;;;;;4192691;28;20059;-64
2023/01/08 03:35:19;;;;;;;6.57;1.40;;;16.20;81.60;;;;;;4192772;28;20430;-64
2023/01/08 03:38:06;;;;;;;7.75;1.67;;;16.30;81.70;;;;;;4192783;28;20050;-64
2023/01/08 03:40:52;;;;;;;5.18;1.42;;;16.30;81.70;;;;;;4182184;28;20407;-64
2023/01/08 03:43:33;;;;;;;5.43;1.30;;;16.30;81.70;;;;;;4176057;28;20162;-64
2023/01/08 03:46:19;;;;;;;6.07;1.85;;;16.30;81.90;;;;;;4175885;28;20890;-64
2023/01/08 03:49:04;;;;;;;8.32;1.92;;;16.30;81.80;;;;;;4184995;28;20052;-62
2023/01/08 03:51:47;;;;;;;5.45;1.40;;;16.30;81.60;;;;;;4192154;28;20055;-61
2023/01/08 03:54:31;;;;;;;6.88;1.50;;;16.30;81.60;;;;;;4192273;28;20051;-62
2023/01/08 03:57:12;;;;;;;7.30;1.67;;;16.30;81.50;;;;;;4192583;28;20515;-61
2023/01/08 03:59:53;;;;;;;7.57;1.30;;;16.40;81.70;;;;;;4191788;28;20530;-61
2023/01/08 04:02:34;;;;;;;4.45;1.38;;;16.40;81.50;;;;;;4191533;28;20411;-62
2023/01/08 04:05:17;;;;;;;6.50;1.70;;;16.40;81.50;;;;;;4192600;28;20055;-62
2023/01/08 04:07:58;;;;;;;3.72;1.67;;;16.40;81.30;;;;;;4191652;28;20051;-62
2023/01/08 04:10:39;;;;;;;6.57;1.50;;;16.40;81.40;;;;;;4192062;28;20177;-61
2023/01/08 04:13:20;;;;;;;10.25;1.63;;;16.40;81.50;;;;;;4175648;28;20063;-62
2023/01/08 04:16:01;;;;;;;5.70;1.35;;;16.40;81.80;;;;;;4175660;28;20060;-61
2023/01/08 04:18:42;;;;;;;7.63;2.22;;;16.40;81.80;;;;;;4185303;28;20056;-62
2023/01/08 04:21:24;;;;;;;6.93;1.38;;;16.40;81.60;;;;;;4191849;28;20121;-62
2023/01/08 04:24:05;;;;;;;4.97;1.65;;;16.40;81.30;;;;;;4192419;28;20101;-61
2023/01/08 04:26:46;;;;;;;4.40;1.50;;;16.50;81.20;;;;;;4192034;28;20105;-62
2023/01/08 04:29:27;;;;;;;4.07;1.50;;;16.50;81.10;;;;;;4191134;28;20190;-62
2023/01/08 04:32:08;;;;;;;4.15;1.77;;;16.40;81.20;;;;;;4191935;28;20051;-64
2023/01/08 04:34:49;;;;;;;5.53;1.58;;;16.40;81.30;;;;;;4191742;28;20210;-64
2023/01/08 04:37:32;;;;;;;2.90;1.38;;;16.40;81.70;;;;;;4192216;28;20051;-64
2023/01/08 04:40:12;;;;;;;4.38;1.58;;;16.30;82.00;;;;;;4191479;28;20058;-64
2023/01/08 04:42:53;;;;;;;3.20;1.98;;;16.40;81.90;;;;;;4187379;28;20515;-64
2023/01/08 04:45:34;;;;;;;4.45;1.52;;;16.50;82.50;;;;;;4191546;28;20059;-64
2023/01/08 04:48:15;;;;;;;6.07;1.73;;;16.50;81.30;;;;;;4191217;28;20051;-64
2023/01/08 04:50:58;;;;;;;4.20;1.77;;;16.50;81.10;;;;;;4191260;28;20048;-64
2023/01/08 04:53:41;;;;;;;1.58;1.48;;;16.50;81.10;;;;;;4191688;28;20420;-64
2023/01/08 04:56:21;;;;;;;1.40;1.30;;;16.50;81.20;;;;;;4190242;28;20067;-64
2023/01/08 04:59:02;;;;;;;3.67;1.65;;;16.40;81.20;;;;;;4190321;28;20055;-64
2023/01/08 05:01:43;;;;;;;2.88;1.50;;;16.40;81.50;;;;;;4191472;28;20052;-64
2023/01/08 05:04:24;;;;;;;3.75;1.58;;;16.30;81.70;;;;;;4191268;28;20052;-64
2023/01/08 05:07:06;;;;;;;3.15;1.50;;;16.30;82.00;;;;;;4191647;28;20059;-64
2023/01/08 05:09:49;;;;;;;2.22;1.13;;;16.20;82.20;;;;;;4191546;28;20178;-64
2023/01/08 05:12:29;;;;;;;4.45;1.60;;;16.20;82.50;;;;;;4181516;28;20178;-63
2023/01/08 05:15:11;;;;;;;1.55;1.45;;;16.20;82.80;;;;;;4194008;28;20101;-64
2023/01/08 05:17:58;;;;;;;2.72;1.52;;;16.20;82.70;;;;;;4195002;28;20055;-64
2023/01/08 05:20:39;;;;;;;3.75;1.58;;;16.20;82.40;;;;;;4193950;28;20518;-64
2023/01/08 05:23:20;;;;;;;4.15;1.48;;;16.30;82.40;;;;;;4194389;28;20564;-64
2023/01/08 05:26:05;;;;;;;3.95;1.65;;;16.30;82.30;;;;;;4194325;28;20048;-64
2023/01/08 05:28:46;;;;;;;2.65;1.48;;;16.30;82.40;;;;;;4184037;28;20047;-64
2023/01/08 05:31:27;;;;;;;1.90;1.17;;;16.40;82.10;;;;;;4194447;28;20498;-64
2023/01/08 05:34:08;;;;;;;3.13;1.53;;;16.40;81.90;;;;;;4194535;28;20510;-64
2023/01/08 05:36:49;;;;;;;2.25;1.48;;;16.40;81.80;;;;;;4194703;28;20054;-64
2023/01/08 05:39:30;;;;;;;2.40;1.23;;;16.40;81.80;;;;;;4193310;28;20101;-64
2023/01/08 05:42:12;;;;;;;2.75;1.50;;;16.40;81.90;;;;;;4182379;28;20052;-64
2023/01/08 05:44:53;;;;;;;1.38;1.00;;;16.30;82.00;;;;;;4194554;28;20493;-64
2023/01/08 05:47:34;;;;;;;2.00;1.10;;;16.30;83.10;;;;;;4194587;28;20055;-64
2023/01/08 05:50:16;;;;;;;2.65;1.25;;;16.20;82.50;;;;;;4193020;28;20055;-64
2023/01/08 05:52:56;;;;;;;1.88;1.35;;;16.30;82.70;;;;;;4194367;28;20048;-63
2023/01/08 05:55:37;;;;;;;1.83;1.58;;;16.30;82.50;;;;;;4194410;28;20097;-63
2023/01/08 05:58:20;;;;;;;1.48;1.08;;;16.30;82.20;;;;;;4194073;28;20059;-63
2023/01/08 06:01:03;;;;;;;1.45;1.10;;;16.40;82.10;;;;;;4193048;28;20056;-63
2023/01/08 06:03:44;;;;;;;2.03;1.20;;;16.30;82.00;;;;;;4177722;28;20059;-63
2023/01/08 06:06:25;;;;;;;1.75;1.23;;;16.30;82.10;;;;;;4177457;28;20179;-63
2023/01/08 06:09:06;;;;;;;2.65;1.00;;;16.30;82.40;;;;;;4177819;28;20380;-61
2023/01/08 06:11:47;;;;;;;4.90;1.00;;;16.30;82.80;;;;;;4177838;28;20060;-62
2023/01/08 06:14:29;;;;;;;1.75;1.00;;;16.40;81.70;;;;;;4177544;28;20151;-62
2023/01/08 06:17:10;;;;;;;2.35;1.00;;;16.40;82.00;;;;;;4177446;28;20052;-61
2023/01/08 06:19:51;;;;;;;1.30;1.20;;;16.40;81.90;;;;;;4182322;28;20051;-61
2023/01/08 06:22:33;;;;;;;1.23;1.13;;;16.40;81.90;;;;;;4194075;28;20059;-62
2023/01/08 06:25:13;;;;;;;;;;;16.40;82.80;;;;;;4194689;28;20086;-62
2023/01/08 06:27:54;;;;;;;1.52;0.88;;;16.50;81.80;;;;;;4177427;28;19971;-62
2023/01/08 06:30:36;;;;;;;3.10;1.33;;;16.60;81.60;;;;;;4187710;28;20040;-61
2023/01/08 06:33:17;;;;;;;4.30;1.40;;;16.50;81.40;;;;;;4193685;28;20059;-62
2023/01/08 06:36:03;;;;;;;1.52;1.35;;;16.50;81.20;;;;;;4193271;28;20121;-61
2023/01/08 06:38:44;;;;;;;3.38;1.30;;;16.50;81.30;;;;;;4193249;28;20499;-62
2023/01/08 06:41:25;;;;;;;1.58;1.20;;;16.50;81.40;;;;;;4176801;28;20126;-62
2023/01/08 06:44:06;;;;;;;3.15;1.10;;;16.60;81.20;;;;;;4176630;28;20109;-65
2023/01/08 06:46:48;;;;;;;2.28;1.13;;;16.60;81.20;;;;;;4176726;28;20048;-62
2023/01/08 06:49:29;;;;;;;2.63;1.48;;;16.50;81.10;;;;;;4180408;28;20047;-62
2023/01/08 06:52:11;;;;;;;1.67;1.10;;;16.50;81.20;;;;;;4193513;28;20056;-62
2023/01/08 06:54:52;;;;;;;;;;;16.50;81.30;;;;;;4194143;28;20075;-62
2023/01/08 06:57:33;;;;;;;3.28;1.70;;;16.50;81.70;;;;;;4193420;28;19973;-62
2023/01/08 07:00:15;;;;;;;4.35;1.60;;;16.50;82.80;;;;;;4193284;28;20063;-61
2023/01/08 07:02:58;;;;;;;1.33;1.23;;;16.40;81.90;;;;;;4193479;28;20051;-64
2023/01/08 07:05:39;;;;;;;1.77;1.20;;;16.50;82.00;;;;;;4193362;28;20047;-64
2023/01/08 07:08:20;;;;;;;1.38;1.25;;;16.50;82.10;;;;;;4190063;28;20055;-64
2023/01/08 07:11:03;;;;;;;1.55;1.30;;;16.50;82.20;;;;;;4180625;28;20051;-64
2023/01/08 07:13:44;;;;;;;3.35;1.50;;;16.50;82.10;;;;;;4193380;28;20051;-62
2023/01/08 07:16:25;;;;;;;2.88;1.60;;;16.50;81.90;;;;;;4192981;28;20059;-64
2023/01/08 07:19:07;;;;;;;2.55;1.23;;;16.60;81.80;;;;;;4193365;28;20050;-63
2023/01/08 07:21:48;;;;;;;3.63;1.38;;;16.50;81.70;;;;;;4192184;28;20051;-64
2023/01/08 07:24:28;;;;;;;2.33;1.30;;;16.50;81.70;;;;;;4193084;28;20237;-64
2023/01/08 07:27:09;;;;;;;4.05;1.45;;;16.50;81.80;;;;;;4192991;28;20056;-63
2023/01/08 07:29:50;;;;;;;4.30;1.58;;;16.50;81.80;;;;;;4193000;28;20038;-63
2023/01/08 07:32:31;;;;;;;5.93;1.48;;;16.60;81.80;;;;;;4192948;28;20051;-64
2023/01/08 07:35:13;;;;;;;5.30;1.67;;;16.50;81.50;;;;;;4191808;28;20494;-64
2023/01/08 07:37:55;;;;;;;2.80;1.35;;;16.50;81.60;;;;;;4192522;28;20506;-63
2023/01/08 07:40:35;;;;;;;3.33;1.52;;;16.50;81.70;;;;;;4192594;28;20047;-63
2023/01/08 07:43:19;;;;;;;4.15;1.30;;;16.50;81.70;;;;;;4193096;28;20533;-64
2023/01/08 07:46:02;;;;;;;2.72;1.20;;;16.40;81.80;;;;;;4192813;28;20066;-64
2023/01/08 07:48:43;;;;;;;2.05;1.23;;;16.40;82.00;;;;;;4175196;28;20060;-63
2023/01/08 07:51:25;;;;;;;3.03;1.30;;;16.30;82.30;;;;;;4176052;28;20052;-65
2023/01/08 07:54:06;;;;;;;4.13;1.60;;;16.30;82.60;;;;;;4180811;28;20071;-64
2023/01/08 07:56:47;;;;;;;2.55;1.10;;;16.30;82.90;;;;;;4191485;28;20396;-64
2023/01/08 07:59:27;;;;;;;1.70;0.90;;;16.30;82.40;;;;;;4192675;28;20079;-63
2023/01/08 08:02:10;;;;;;;2.70;1.17;;;16.40;82.00;;;;;;4191563;28;20047;-63
2023/01/08 08:04:51;;;;;;;3.67;1.20;;;16.40;81.20;;;;;;4192519;28;20133;-64
2023/01/08 08:07:34;;;;;;;1.88;1.20;;;16.50;80.40;;;;;;4190748;28;20135;-63
2023/01/08 08:10:15;;;;;;;2.85;1.20;;;16.50;79.90;;;;;;4192412;28;20052;-64
2023/01/08 08:12:56;;;;;;;4.87;1.13;;;16.50;79.50;;;;;;4192211;28;20059;-64
2023/01/08 08:15:38;;;;;;;3.80;1.10;;;16.50;78.90;;;;;;4192313;28;20561;-64
2023/01/08 08:18:19;;;;;;;3.08;1.30;;;16.50;78.60;;;;;;4192049;28;20063;-63
2023/01/08 08:21:00;;;;;;;5.70;1.90;;;16.40;78.40;;;;;;4192055;28;20533;-63
2023/01/08 08:23:43;;;;;;;2.35;1.40;;;16.50;78.10;;;;;;4192601;28;20063;-62
2023/01/08 08:26:24;;;;;;;3.35;1.80;;;16.50;77.50;;;;;;4192396;28;20062;-63
2023/01/08 08:29:05;;;;;;;4.43;1.77;;;16.50;76.70;;;;;;4187340;28;20159;-63
2023/01/08 08:31:46;;;;;;;4.78;2.30;;;16.50;76.40;;;;;;4175547;28;20043;-63
2023/01/08 08:34:27;;;;;;;4.32;2.30;;;16.50;75.70;;;;;;4175150;28;20051;-64
2023/01/08 08:37:08;;;;;;;4.15;1.60;;;16.60;75.20;;;;;;4175026;28;20051;-63
2023/01/08 08:39:51;;;;;;;4.03;2.17;;;16.60;74.70;;;;;;4175194;28;20043;-63
2023/01/08 08:42:31;;;;;;;4.88;2.08;;;16.50;74.50;;;;;;4191081;28;20060;-63
2023/01/08 08:45:12;;;;;;;1.27;1.17;;;16.50;74.50;;;;;;4191647;28;20059;-61
2023/01/08 08:47:53;;;;;;;4.20;1.67;;;16.50;74.50;;;;;;4191616;28;20437;-61
2023/01/08 08:50:35;;;;;;;5.40;2.67;;;16.40;74.30;;;;;;4192092;28;20174;-61
2023/01/08 08:53:16;;;;;;;;;;;16.40;74.30;;;;;;4189001;28;20063;-60
2023/01/08 08:55:59;;;;;;;4.28;1.80;;;16.30;74.60;;;;;;4189441;28;20037;-61
2023/01/08 08:58:41;;;;;;;3.78;1.55;;;16.20;74.60;;;;;;4187604;28;20433;-60
2023/01/08 09:01:21;;;;;;;3.75;1.55;;;16.20;74.70;;;;;;4184650;28;20158;-61
2023/01/08 09:04:02;;;;;;;6.00;1.90;;;16.10;74.90;;;;;;4191430;28;20055;-61
2023/01/08 09:06:43;;;;;;;3.97;1.52;;;16.00;75.30;;;;;;4191348;28;20052;-61
2023/01/08 09:09:24;;;;;;;2.22;1.63;;;16.00;75.40;;;;;;4187392;28;20098;-60
2023/01/08 09:12:07;;;;;;;1.98;1.25;;;16.00;75.20;;;;;;4190593;28;20048;-60
2023/01/08 09:14:49;;;;;;;4.07;1.35;;;16.10;74.60;;;;;;4185759;28;20105;-61
2023/01/08 09:17:30;;;;;;;;;;;16.20;74.20;;;;;;4182748;28;20214;-61
2023/01/08 09:20:11;;;;;;;4.00;1.50;;;16.20;73.90;;;;;;4175141;28;19948;-63
2023/01/08 09:22:52;;;;;;;7.45;1.92;;;16.30;73.80;;;;;;4183354;28;20056;-63
2023/01/08 09:25:34;;;;;;;2.38;1.70;;;16.20;73.50;;;;;;4190299;28;20059;-61
2023/01/08 09:28:16;;;;;;;4.43;1.17;;;16.20;73.50;;;;;;4180147;28;20131;-61
2023/01/08 09:31:01;;;;;;;1.98;1.33;;;16.10;73.60;;;;;;4185949;28;20059;-61
2023/01/08 09:33:42;;;;;;;1.80;1.20;;;16.10;73.60;;;;;;4186437;28;20064;-63
2023/01/08 09:36:23;;;;;;;1.63;1.50;;;16.00;73.80;;;;;;4174343;28;20187;-63
2023/01/08 09:39:04;;;;;;;1.95;1.20;;;16.00;73.90;;;;;;4181209;28;20290;-63
2023/01/08 09:41:47;;;;;;;3.33;1.40;;;15.90;74.20;;;;;;4191137;28;20051;-63
2023/01/08 09:44:33;;;;;;;3.38;1.10;;;15.90;74.60;;;;;;4182112;28;20055;-63
2023/01/08 09:47:24;;;;;;;5.20;1.42;;;15.80;75.00;;;;;;4187672;28;20126;-61
2023/01/08 09:50:09;;;;;;;3.63;1.30;;;16.00;75.40;;;;;;4201642;28;20051;-60
2023/01/08 09:52:50;;;;;;;4.97;1.45;;;16.30;74.40;;;;;;4197750;28;20047;-61
2023/01/08 09:55:36;;;;;;;1.20;1.10;;;16.70;72.80;;;;;;4191316;28;20202;-61
2023/01/08 09:58:27;;;;;;;3.72;1.70;;;17.10;70.70;;;;;;4186985;28;20055;-63
2023/01/08 10:01:14;;;;;;;4.82;1.40;;;17.60;68.70;;;;;;4185507;28;20071;-63
2023/01/08 10:04:00;;;;;;;3.72;1.23;;;18.00;66.60;;;;;;4191470;28;20047;-63
2023/01/08 10:06:41;;;;;;;1.60;0.70;;;18.40;65.00;;;;;;4192609;28;20055;-64
2023/01/08 10:09:26;;;;;;;5.82;1.52;;;18.70;63.80;;;;;;4194086;28;20059;-63
2023/01/08 10:12:11;;;;;;;4.30;1.52;;;18.80;62.40;;;;;;4193445;28;20482;-64
2023/01/08 10:14:54;;;;;;;2.58;0.90;;;19.00;61.50;;;;;;4193130;28;20059;-63
2023/01/08 10:17:38;;;;;;;2.17;0.95;;;19.00;61.20;;;;;;4193433;28;20048;-63
2023/01/08 10:20:20;;;;;;;4.68;1.55;;;19.00;61.10;;;;;;4177257;28;20605;-63
2023/01/08 10:23:10;;;;;;;6.25;1.27;;;18.90;61.30;;;;;;4183521;28;20102;-63
2023/01/08 10:25:53;;;;;;;5.57;1.70;;;18.80;62.00;;;;;;4211431;27;20113;-64
2023/01/08 10:28:35;;;;;;;5.22;1.60;;;18.80;62.30;;;;;;4210842;27;20074;-62
2023/01/08 10:31:16;;;;;;;4.80;1.60;;;18.90;62.60;;;;;;4197933;27;20808;-62
2023/01/08 10:34:09;;;;;;;8.23;1.63;;;18.90;62.60;;;;;;4177180;28;20060;-63
2023/01/08 10:36:50;;;;;;;5.50;1.70;;;19.00;62.30;;;;;;4180421;28;20403;-63
2023/01/08 10:39:32;;;;;;;3.30;1.42;;;19.00;62.50;;;;;;4177483;28;20063;-61
2023/01/08 10:42:14;;;;;;;5.15;1.40;;;19.10;62.40;;;;;;4185684;28;20054;-62
2023/01/08 10:44:59;;;;;;;2.15;1.20;;;19.10;62.40;;;;;;4177364;28;20043;-62
2023/01/08 10:47:47;;;;;;;3.10;1.55;;;19.10;62.50;;;;;;4175802;28;20561;-61
2023/01/08 10:50:31;;;;;;;5.03;2.00;;;19.10;62.50;;;;;;4177856;28;20052;-63
2023/01/08 10:53:26;;;;;;;6.38;1.95;;;19.00;62.90;;;;;;4189417;28;20114;-62
2023/01/08 10:56:18;;;;;;;4.57;1.55;;;19.00;63.20;;;;;;4192657;28;20117;-63
2023/01/08 10:58:59;;;;;;;9.73;1.92;;;19.00;63.90;;;;;;4193165;28;20399;-63
2023/01/08 11:01:40;;;;;;;4.90;1.52;;;19.00;64.10;;;;;;4192856;28;20159;-63
2023/01/08 11:04:26;;;;;;;6.85;1.40;;;19.00;64.00;;;;;;4193376;28;20052;-63
2023/01/08 11:07:20;;;;;;;6.20;1.90;;;19.10;63.90;;;;;;4193184;28;20072;-62
2023/01/08 11:10:03;;;;;;;7.00;1.65;;;19.10;63.20;;;;;;4191295;28;20494;-63
2023/01/08 11:12:45;;;;;;;7.47;1.73;;;19.20;63.50;;;;;;4193262;28;20055;-63
2023/01/08 11:15:33;;;;;;;5.53;1.70;;;19.10;63.50;;;;;;4192548;28;20063;-62
2023/01/08 11:18:20;;;;;;;5.70;1.98;;;19.00;63.60;;;;;;4193270;28;20055;-63
2023/01/08 11:21:09;;;;;;;6.18;1.75;;;18.90;63.90;;;;;;4193007;28;20056;-62
2023/01/08 11:24:12;;;;;;;6.15;1.83;;;18.80;64.50;;;;;;4176571;28;20554;-63
2023/01/08 11:26:57;;;;;;;7.53;1.40;;;18.80;65.00;;;;;;4182296;28;20092;-62
2023/01/08 11:29:44;;;;;;;6.18;1.75;;;18.80;65.10;;;;;;4193098;28;20058;-63
2023/01/08 11:32:36;;;;;;;5.18;1.70;;;18.80;64.90;;;;;;4192834;28;20055;-62
2023/01/08 11:35:19;;;;;;;;;;;18.80;65.00;;;;;;4183154;28;20082;-63
2023/01/08 11:38:01;;;;;;;6.22;1.60;;;18.80;65.70;;;;;;4182937;28;19927;-63
2023/01/08 11:40:53;;;;;;;8.43;1.83;;;18.90;65.60;;;;;;4182303;28;20341;-62
2023/01/08 11:43:45;;;;;;;5.72;1.50;;;18.90;65.40;;;;;;4174300;28;21484;-62
2023/01/08 11:46:34;;;;;;;10.00;1.70;;;18.90;65.40;;;;;;4180501;28;20060;-62
2023/01/08 11:49:32;;;;;;;9.90;2.45;;;19.00;65.70;;;;;;4177041;28;20121;-62
2023/01/08 11:52:34;;;;;;;5.20;1.38;;;18.90;65.90;;;;;;4170496;28;20056;-63
2023/01/08 11:55:30;;;;;;;6.60;1.70;;;19.00;66.40;;;;;;4172647;28;20056;-62
2023/01/08 11:58:23;;;;;;;6.00;1.67;;;19.00;66.70;;;;;;4184053;28;20229;-63
2023/01/08 12:01:22;;;;;;;8.55;1.95;;;19.00;66.70;;;;;;4179289;28;20514;-62
2023/01/08 12:04:31;;;;;;;5.15;1.65;;;18.90;66.70;;;;;;4184083;28;20050;-62
2023/01/08 12:07:18;;;;;;;9.52;2.50;;;18.90;66.80;;;;;;4180449;28;20118;-62
2023/01/08 12:10:10;;;;;;;8.10;2.05;;;18.90;67.50;;;;;;4177544;28;20158;-63
2023/01/08 12:13:03;;;;;;;6.47;1.98;;;18.80;67.50;;;;;;4176117;28;20121;-62
2023/01/08 12:15:55;;;;;;;7.03;2.45;;;18.80;67.80;;;;;;4178624;28;20056;-62
2023/01/08 12:18:54;;;;;;;6.65;2.13;;;18.70;67.80;;;;;;4165627;28;20125;-62
2023/01/08 12:21:49;;;;;;;6.95;2.03;;;18.70;67.90;;;;;;4164289;28;20051;-62
2023/01/08 12:24:57;;;;;;;8.23;2.03;;;18.70;67.90;;;;;;4180977;28;20158;-62
2023/01/08 12:27:49;;;;;;;9.30;2.08;;;18.70;68.20;;;;;;4180195;28;20218;-62
2023/01/08 12:30:53;;;;;;;9.02;1.77;;;18.60;68.70;;;;;;4185017;28;20078;-63
2023/01/08 12:33:37;;;;;;;6.80;1.67;;;18.70;68.60;;;;;;4172090;28;20510;-62
2023/01/08 12:36:23;;;;;;;8.60;2.33;;;18.70;68.70;;;;;;4180763;28;20059;-62
2023/01/08 12:39:10;;;;;;;10.52;2.53;;;18.70;68.70;;;;;;4179816;28;20056;-62
2023/01/08 12:41:54;;;;;;;5.88;1.70;;;18.80;68.50;;;;;;4182663;28;20187;-62
2023/01/08 12:44:37;;;;;;;6.40;1.90;;;18.80;68.40;;;;;;4178908;28;20048;-63
2023/01/08 12:47:24;;;;;;;6.60;1.80;;;18.80;68.30;;;;;;4176073;28;20063;-62
2023/01/08 12:50:20;;;;;;;5.28;1.55;;;18.80;69.20;;;;;;4179609;27;20404;-63
2023/01/08 12:53:08;;;;;;;5.13;1.58;;;18.70;68.40;;;;;;4178670;28;20052;-62
2023/01/08 12:55:59;;;;;;;10.50;1.95;;;18.60;68.90;;;;;;4174061;28;20071;-61
2023/01/08 12:58:59;;;;;;;8.77;1.80;;;18.60;69.40;;;;;;4187267;28;20125;-62
2023/01/08 13:01:47;;;;;;;6.00;1.60;;;18.50;70.10;;;;;;4170312;28;20408;-62
2023/01/08 13:04:39;;;;;;;5.82;1.80;;;18.60;70.50;;;;;;4170619;28;20412;-64
2023/01/08 13:07:25;;;;;;;5.35;1.60;;;18.60;70.30;;;;;;4180870;28;20168;-61
2023/01/08 13:10:09;;;;;;;12.32;2.03;;;18.60;70.20;;;;;;4183460;28;20107;-64
2023/01/08 13:12:53;;;;;;;6.78;1.85;;;18.50;70.10;;;;;;4175139;28;20190;-63
2023/01/08 13:15:36;;;;;;;5.10;1.40;;;18.40;70.30;;;;;;4175009;28;20055;-64
2023/01/08 13:18:20;;;;;;;12.60;1.80;;;18.40;69.80;;;;;;4183001;28;20106;-64
2023/01/08 13:21:05;;;;;;;6.85;2.13;;;18.40;70.80;;;;;;4178446;28;20143;-62
2023/01/08 13:23:46;;;;;;;7.35;1.55;;;18.40;70.70;;;;;;4170529;28;20056;-62
2023/01/08 13:26:32;;;;;;;5.07;1.20;;;18.40;70.80;;;;;;4173834;28;20052;-64
2023/01/08 13:29:38;;;;;;;5.40;1.77;;;18.40;71.10;;;;;;4175165;28;20051;-63
2023/01/08 13:32:37;;;;;;;8.00;2.20;;;18.40;69.90;;;;;;4188548;28;20074;-64
2023/01/08 13:35:24;;;;;;;7.78;1.70;;;18.50;71.00;;;;;;4159985;28;20060;-62
2023/01/08 13:38:14;;;;;;;5.20;1.65;;;18.60;70.00;;;;;;4161023;28;20126;-62
2023/01/08 13:40:56;;;;;;;8.65;1.80;;;18.60;69.60;;;;;;4163633;28;20056;-62
2023/01/08 13:43:39;;;;;;;7.88;1.90;;;18.70;69.90;;;;;;4162677;28;20052;-64
2023/01/08 13:46:20;;;;;;;4.72;1.50;;;18.70;69.70;;;;;;4161904;28;20516;-63
2023/01/08 13:49:04;;;;;;;6.25;1.92;;;18.80;69.60;;;;;;4175499;28;20186;-64
2023/01/08 13:51:46;;;;;;;7.32;1.52;;;18.80;69.50;;;;;;4174706;28;20067;-65
2023/01/08 13:54:35;;;;;;;8.05;2.17;;;18.80;69.50;;;;;;4159799;28;20056;-64
2023/01/08 13:57:18;;;;;;;8.13;1.40;;;18.80;69.20;;;;;;4167931;28;20060;-64
2023/01/08 14:00:00;;;;;;;10.93;1.58;;;18.70;69.80;;;;;;4175281;28;20186;-63
2023/01/08 14:02:49;;;;;;;6.15;1.73;;;18.60;70.00;;;;;;4174305;28;20048;-63
2023/01/08 14:05:33;;;;;;;6.70;1.52;;;18.60;70.30;;;;;;4174456;28;20376;-64
2023/01/08 14:08:22;;;;;;;4.68;1.52;;;18.40;70.70;;;;;;4165861;28;20146;-61
2023/01/08 14:11:05;;;;;;;3.75;1.45;;;18.40;71.20;;;;;;4168040;28;20119;-61
2023/01/08 14:13:46;;;;;;;6.57;1.95;;;18.30;71.60;;;;;;4160115;28;20052;-63